sensor_id;sensor_type;location;lat;lon;timestamp;P1;durP1;ratioP1;P2;durP2;ratioP2
24233;SDS011;12365;43.554;1.388;2023-12-20T00:02:03;17.63;;;12.13;;
24233;SDS011;12365;43.554;1.388;2023-12-20T00:04:29;16.30;;;11.85;;
24233;SDS011;12365;43.554;1.388;2023-12-20T00:06:54;16.83;;;11.38;;
24233;SDS011;12365;43.554;1.388;2023-12-20T00:09:19;17.55;;;11.50;;
24233;SDS011;12365;43.554;1.388;2023-12-20T00:11:45;17.20;;;11.70;;
24233;SDS011;12365;43.554;1.388;2023-12-20T00:14:11;15.63;;;10.52;;
24233;SDS011;12365;43.554;1.388;2023-12-20T00:16:36;15.55;;;10.65;;
24233;SDS011;12365;43.554;1.388;2023-12-20T00:19:02;15.68;;;10.43;;
24233;SDS011;12365;43.554;1.388;2023-12-20T00:21:27;15.23;;;10.68;;
24233;SDS011;12365;43.554;1.388;2023-12-20T00:23:52;13.70;;;10.75;;
24233;SDS011;12365;43.554;1.388;2023-12-20T00:26:18;21.05;;;11.50;;
24233;SDS011;12365;43.554;1.388;2023-12-20T00:28:43;18.42;;;11.63;;
24233;SDS011;12365;43.554;1.388;2023-12-20T00:31:08;19.63;;;11.55;;
24233;SDS011;12365;43.554;1.388;2023-12-20T00:33:34;18.77;;;11.52;;
24233;SDS011;12365;43.554;1.388;2023-12-20T00:35:59;17.77;;;11.25;;
24233;SDS011;12365;43.554;1.388;2023-12-20T00:38:25;15.88;;;10.85;;
24233;SDS011;12365;43.554;1.388;2023-12-20T00:40:50;16.40;;;10.80;;
24233;SDS011;12365;43.554;1.388;2023-12-20T00:43:16;15.00;;;10.18;;
24233;SDS011;12365;43.554;1.388;2023-12-20T00:45:41;15.43;;;9.82;;
24233;SDS011;12365;43.554;1.388;2023-12-20T00:48:07;14.07;;;8.95;;
24233;SDS011;12365;43.554;1.388;2023-12-20T00:50:32;11.88;;;8.68;;
24233;SDS011;12365;43.554;1.388;2023-12-20T00:52:57;13.27;;;8.65;;
24233;SDS011;12365;43.554;1.388;2023-12-20T00:55:23;12.90;;;8.70;;
24233;SDS011;12365;43.554;1.388;2023-12-20T00:57:48;11.77;;;8.55;;
24233;SDS011;12365;43.554;1.388;2023-12-20T01:00:13;11.55;;;8.57;;
24233;SDS011;12365;43.554;1.388;2023-12-20T01:02:39;12.80;;;8.02;;
24233;SDS011;12365;43.554;1.388;2023-12-20T01:05:05;12.13;;;8.38;;
24233;SDS011;12365;43.554;1.388;2023-12-20T01:07:32;12.65;;;8.10;;
24233;SDS011;12365;43.554;1.388;2023-12-20T01:09:57;14.18;;;8.23;;
24233;SDS011;12365;43.554;1.388;2023-12-20T01:12:23;11.55;;;8.70;;
24233;SDS011;12365;43.554;1.388;2023-12-20T01:14:48;11.80;;;8.10;;
24233;SDS011;12365;43.554;1.388;2023-12-20T01:17:13;11.63;;;8.45;;
24233;SDS011;12365;43.554;1.388;2023-12-20T01:19:39;12.10;;;8.00;;
24233;SDS011;12365;43.554;1.388;2023-12-20T01:22:04;11.07;;;7.80;;
24233;SDS011;12365;43.554;1.388;2023-12-20T01:24:30;12.30;;;8.00;;
24233;SDS011;12365;43.554;1.388;2023-12-20T01:26:55;10.93;;;7.78;;
24233;SDS011;12365;43.554;1.388;2023-12-20T01:29:20;12.40;;;8.20;;
24233;SDS011;12365;43.554;1.388;2023-12-20T01:31:46;10.65;;;7.97;;
24233;SDS011;12365;43.554;1.388;2023-12-20T01:34:11;12.75;;;8.18;;
24233;SDS011;12365;43.554;1.388;2023-12-20T01:36:37;11.52;;;7.80;;
24233;SDS011;12365;43.554;1.388;2023-12-20T01:39:02;10.07;;;7.85;;
24233;SDS011;12365;43.554;1.388;2023-12-20T01:41:28;11.60;;;8.27;;
24233;SDS011;12365;43.554;1.388;2023-12-20T01:43:53;11.40;;;8.00;;
24233;SDS011;12365;43.554;1.388;2023-12-20T01:46:19;10.85;;;7.78;;
24233;SDS011;12365;43.554;1.388;2023-12-20T01:48:45;10.10;;;7.70;;
24233;SDS011;12365;43.554;1.388;2023-12-20T01:51:11;10.30;;;7.57;;
24233;SDS011;12365;43.554;1.388;2023-12-20T01:53:37;10.70;;;7.72;;
24233;SDS011;12365;43.554;1.388;2023-12-20T01:56:04;11.77;;;7.50;;
24233;SDS011;12365;43.554;1.388;2023-12-20T01:58:30;10.32;;;7.47;;
24233;SDS011;12365;43.554;1.388;2023-12-20T02:00:56;11.68;;;7.75;;
24233;SDS011;12365;43.554;1.388;2023-12-20T02:03:22;11.57;;;7.25;;
24233;SDS011;12365;43.554;1.388;2023-12-20T02:05:48;9.93;;;7.65;;
24233;SDS011;12365;43.554;1.388;2023-12-20T02:08:13;9.88;;;7.75;;
24233;SDS011;12365;43.554;1.388;2023-12-20T02:10:39;10.00;;;7.80;;
24233;SDS011;12365;43.554;1.388;2023-12-20T02:13:05;9.13;;;7.53;;
24233;SDS011;12365;43.554;1.388;2023-12-20T02:15:31;9.98;;;7.47;;
24233;SDS011;12365;43.554;1.388;2023-12-20T02:17:56;9.05;;;6.85;;
24233;SDS011;12365;43.554;1.388;2023-12-20T02:20:22;9.88;;;7.50;;
24233;SDS011;12365;43.554;1.388;2023-12-20T02:22:47;13.55;;;7.00;;
24233;SDS011;12365;43.554;1.388;2023-12-20T02:25:13;9.60;;;6.93;;
24233;SDS011;12365;43.554;1.388;2023-12-20T02:27:38;9.75;;;6.57;;
24233;SDS011;12365;43.554;1.388;2023-12-20T02:30:05;10.18;;;6.70;;
24233;SDS011;12365;43.554;1.388;2023-12-20T02:32:31;9.52;;;6.43;;
24233;SDS011;12365;43.554;1.388;2023-12-20T02:34:56;9.60;;;6.55;;
24233;SDS011;12365;43.554;1.388;2023-12-20T02:37:23;8.85;;;6.57;;
24233;SDS011;12365;43.554;1.388;2023-12-20T02:39:48;7.97;;;6.50;;
24233;SDS011;12365;43.554;1.388;2023-12-20T02:42:13;8.95;;;6.10;;
24233;SDS011;12365;43.554;1.388;2023-12-20T02:44:39;9.40;;;6.88;;
24233;SDS011;12365;43.554;1.388;2023-12-20T02:47:04;8.75;;;6.72;;
24233;SDS011;12365;43.554;1.388;2023-12-20T02:49:30;10.30;;;7.00;;
24233;SDS011;12365;43.554;1.388;2023-12-20T02:51:55;10.20;;;6.75;;
24233;SDS011;12365;43.554;1.388;2023-12-20T02:54:20;9.02;;;6.45;;
24233;SDS011;12365;43.554;1.388;2023-12-20T02:56:46;8.85;;;6.57;;
24233;SDS011;12365;43.554;1.388;2023-12-20T02:59:11;13.90;;;6.38;;
24233;SDS011;12365;43.554;1.388;2023-12-20T03:01:46;9.90;;;6.38;;
24233;SDS011;12365;43.554;1.388;2023-12-20T03:04:12;7.65;;;5.97;;
24233;SDS011;12365;43.554;1.388;2023-12-20T03:06:37;9.20;;;6.10;;
24233;SDS011;12365;43.554;1.388;2023-12-20T03:09:03;7.70;;;6.05;;
24233;SDS011;12365;43.554;1.388;2023-12-20T03:11:29;11.98;;;6.88;;
24233;SDS011;12365;43.554;1.388;2023-12-20T03:13:55;9.38;;;6.75;;
24233;SDS011;12365;43.554;1.388;2023-12-20T03:16:21;8.80;;;6.75;;
24233;SDS011;12365;43.554;1.388;2023-12-20T03:18:46;8.65;;;6.70;;
24233;SDS011;12365;43.554;1.388;2023-12-20T03:21:11;9.65;;;6.80;;
24233;SDS011;12365;43.554;1.388;2023-12-20T03:23:37;8.60;;;6.97;;
24233;SDS011;12365;43.554;1.388;2023-12-20T03:26:02;10.98;;;7.05;;
24233;SDS011;12365;43.554;1.388;2023-12-20T03:28:29;12.27;;;8.43;;
24233;SDS011;12365;43.554;1.388;2023-12-20T03:30:54;10.02;;;7.40;;
24233;SDS011;12365;43.554;1.388;2023-12-20T03:33:20;8.43;;;6.82;;
24233;SDS011;12365;43.554;1.388;2023-12-20T03:35:45;8.80;;;7.13;;
24233;SDS011;12365;43.554;1.388;2023-12-20T03:38:10;10.15;;;6.53;;
24233;SDS011;12365;43.554;1.388;2023-12-20T03:40:36;10.43;;;7.07;;
24233;SDS011;12365;43.554;1.388;2023-12-20T03:43:01;11.13;;;7.32;;
24233;SDS011;12365;43.554;1.388;2023-12-20T03:45:27;9.93;;;8.10;;
24233;SDS011;12365;43.554;1.388;2023-12-20T03:47:52;12.80;;;8.45;;
24233;SDS011;12365;43.554;1.388;2023-12-20T03:50:22;9.95;;;7.32;;
24233;SDS011;12365;43.554;1.388;2023-12-20T03:52:48;11.95;;;7.13;;
24233;SDS011;12365;43.554;1.388;2023-12-20T03:55:13;12.02;;;7.28;;
24233;SDS011;12365;43.554;1.388;2023-12-20T03:57:39;10.60;;;7.43;;
24233;SDS011;12365;43.554;1.388;2023-12-20T04:00:04;10.77;;;7.15;;
24233;SDS011;12365;43.554;1.388;2023-12-20T04:02:34;10.40;;;7.60;;
24233;SDS011;12365;43.554;1.388;2023-12-20T04:04:59;10.10;;;7.10;;
24233;SDS011;12365;43.554;1.388;2023-12-20T04:07:25;13.02;;;7.90;;
24233;SDS011;12365;43.554;1.388;2023-12-20T04:09:50;9.27;;;7.45;;
24233;SDS011;12365;43.554;1.388;2023-12-20T04:12:16;10.52;;;7.38;;
24233;SDS011;12365;43.554;1.388;2023-12-20T04:14:41;10.07;;;7.72;;
24233;SDS011;12365;43.554;1.388;2023-12-20T04:17:06;10.77;;;7.50;;
24233;SDS011;12365;43.554;1.388;2023-12-20T04:19:32;11.45;;;7.65;;
24233;SDS011;12365;43.554;1.388;2023-12-20T04:21:57;9.85;;;7.82;;
24233;SDS011;12365;43.554;1.388;2023-12-20T04:24:22;9.20;;;7.43;;
24233;SDS011;12365;43.554;1.388;2023-12-20T04:26:48;10.77;;;8.23;;
24233;SDS011;12365;43.554;1.388;2023-12-20T04:29:13;9.70;;;7.75;;
24233;SDS011;12365;43.554;1.388;2023-12-20T04:31:38;10.35;;;7.50;;
24233;SDS011;12365;43.554;1.388;2023-12-20T04:34:04;8.75;;;7.03;;
24233;SDS011;12365;43.554;1.388;2023-12-20T04:36:29;9.82;;;7.03;;
24233;SDS011;12365;43.554;1.388;2023-12-20T04:38:55;9.07;;;7.18;;
24233;SDS011;12365;43.554;1.388;2023-12-20T04:41:20;9.43;;;7.07;;
24233;SDS011;12365;43.554;1.388;2023-12-20T04:43:45;9.00;;;6.78;;
24233;SDS011;12365;43.554;1.388;2023-12-20T04:46:11;9.60;;;6.00;;
24233;SDS011;12365;43.554;1.388;2023-12-20T04:48:36;8.27;;;5.38;;
24233;SDS011;12365;43.554;1.388;2023-12-20T04:51:01;5.75;;;4.53;;
24233;SDS011;12365;43.554;1.388;2023-12-20T04:53:27;5.72;;;4.15;;
24233;SDS011;12365;43.554;1.388;2023-12-20T04:55:53;5.05;;;4.03;;
24233;SDS011;12365;43.554;1.388;2023-12-20T04:58:18;15.63;;;8.70;;
24233;SDS011;12365;43.554;1.388;2023-12-20T05:00:44;4.18;;;3.78;;
24233;SDS011;12365;43.554;1.388;2023-12-20T05:03:09;5.45;;;3.70;;
24233;SDS011;12365;43.554;1.388;2023-12-20T05:05:34;4.00;;;3.40;;
24233;SDS011;12365;43.554;1.388;2023-12-20T05:08:00;3.75;;;3.38;;
24233;SDS011;12365;43.554;1.388;2023-12-20T05:10:25;3.80;;;3.40;;
24233;SDS011;12365;43.554;1.388;2023-12-20T05:12:52;4.07;;;3.55;;
24233;SDS011;12365;43.554;1.388;2023-12-20T05:15:17;3.90;;;3.20;;
24233;SDS011;12365;43.554;1.388;2023-12-20T05:17:42;6.45;;;3.10;;
24233;SDS011;12365;43.554;1.388;2023-12-20T05:20:08;3.95;;;2.92;;
24233;SDS011;12365;43.554;1.388;2023-12-20T05:22:33;3.45;;;2.97;;
24233;SDS011;12365;43.554;1.388;2023-12-20T05:24:59;3.50;;;2.83;;
24233;SDS011;12365;43.554;1.388;2023-12-20T05:27:24;3.80;;;2.80;;
24233;SDS011;12365;43.554;1.388;2023-12-20T05:29:49;4.18;;;2.58;;
24233;SDS011;12365;43.554;1.388;2023-12-20T05:32:15;2.78;;;2.42;;
24233;SDS011;12365;43.554;1.388;2023-12-20T05:34:41;3.53;;;2.38;;
24233;SDS011;12365;43.554;1.388;2023-12-20T05:37:06;2.10;;;1.90;;
24233;SDS011;12365;43.554;1.388;2023-12-20T05:39:31;3.53;;;2.30;;
24233;SDS011;12365;43.554;1.388;2023-12-20T05:41:57;2.35;;;2.10;;
24233;SDS011;12365;43.554;1.388;2023-12-20T05:44:22;3.22;;;2.10;;
24233;SDS011;12365;43.554;1.388;2023-12-20T05:46:47;2.20;;;2.00;;
24233;SDS011;12365;43.554;1.388;2023-12-20T05:49:13;2.33;;;1.90;;
24233;SDS011;12365;43.554;1.388;2023-12-20T05:51:38;2.40;;;2.00;;
24233;SDS011;12365;43.554;1.388;2023-12-20T05:54:04;2.10;;;1.80;;
24233;SDS011;12365;43.554;1.388;2023-12-20T05:56:29;2.17;;;1.75;;
24233;SDS011;12365;43.554;1.388;2023-12-20T05:58:55;2.85;;;1.67;;
24233;SDS011;12365;43.554;1.388;2023-12-20T06:01:20;3.00;;;1.58;;
24233;SDS011;12365;43.554;1.388;2023-12-20T06:03:45;1.83;;;1.70;;
24233;SDS011;12365;43.554;1.388;2023-12-20T06:06:11;1.90;;;1.60;;
24233;SDS011;12365;43.554;1.388;2023-12-20T06:08:37;1.92;;;1.50;;
24233;SDS011;12365;43.554;1.388;2023-12-20T06:11:03;1.70;;;1.48;;
24233;SDS011;12365;43.554;1.388;2023-12-20T06:13:28;2.75;;;1.73;;
24233;SDS011;12365;43.554;1.388;2023-12-20T06:15:54;1.80;;;1.30;;
24233;SDS011;12365;43.554;1.388;2023-12-20T06:18:20;1.60;;;1.50;;
24233;SDS011;12365;43.554;1.388;2023-12-20T06:20:45;1.40;;;1.27;;
24233;SDS011;12365;43.554;1.388;2023-12-20T06:23:11;1.77;;;1.30;;
24233;SDS011;12365;43.554;1.388;2023-12-20T06:25:36;1.30;;;1.20;;
24233;SDS011;12365;43.554;1.388;2023-12-20T06:28:02;1.50;;;1.30;;
24233;SDS011;12365;43.554;1.388;2023-12-20T06:30:27;3.10;;;1.27;;
24233;SDS011;12365;43.554;1.388;2023-12-20T06:32:53;2.28;;;1.33;;
24233;SDS011;12365;43.554;1.388;2023-12-20T06:35:20;1.58;;;1.30;;
24233;SDS011;12365;43.554;1.388;2023-12-20T06:37:45;2.97;;;1.20;;
24233;SDS011;12365;43.554;1.388;2023-12-20T06:40:11;1.80;;;1.40;;
24233;SDS011;12365;43.554;1.388;2023-12-20T06:42:36;1.55;;;1.23;;
24233;SDS011;12365;43.554;1.388;2023-12-20T06:45:02;1.50;;;1.10;;
24233;SDS011;12365;43.554;1.388;2023-12-20T06:47:28;2.30;;;1.38;;
24233;SDS011;12365;43.554;1.388;2023-12-20T06:49:53;1.10;;;1.00;;
24233;SDS011;12365;43.554;1.388;2023-12-20T06:52:18;1.20;;;1.00;;
24233;SDS011;12365;43.554;1.388;2023-12-20T06:54:44;1.30;;;1.10;;
24233;SDS011;12365;43.554;1.388;2023-12-20T06:57:09;1.40;;;1.10;;
24233;SDS011;12365;43.554;1.388;2023-12-20T06:59:38;2.10;;;1.10;;
24233;SDS011;12365;43.554;1.388;2023-12-20T07:02:05;3.33;;;1.10;;
24233;SDS011;12365;43.554;1.388;2023-12-20T07:04:30;1.77;;;1.10;;
24233;SDS011;12365;43.554;1.388;2023-12-20T07:06:56;0.77;;;0.77;;
24233;SDS011;12365;43.554;1.388;2023-12-20T07:09:22;1.02;;;0.70;;
24233;SDS011;12365;43.554;1.388;2023-12-20T07:11:48;1.30;;;0.88;;
24233;SDS011;12365;43.554;1.388;2023-12-20T07:14:13;0.90;;;0.77;;
24233;SDS011;12365;43.554;1.388;2023-12-20T07:16:39;0.70;;;0.70;;
24233;SDS011;12365;43.554;1.388;2023-12-20T07:19:05;0.85;;;0.73;;
24233;SDS011;12365;43.554;1.388;2023-12-20T07:21:31;0.65;;;0.65;;
24233;SDS011;12365;43.554;1.388;2023-12-20T07:23:56;0.90;;;0.90;;
24233;SDS011;12365;43.554;1.388;2023-12-20T07:26:22;0.90;;;0.80;;
24233;SDS011;12365;43.554;1.388;2023-12-20T07:28:48;1.88;;;0.98;;
24233;SDS011;12365;43.554;1.388;2023-12-20T07:31:14;1.40;;;1.00;;
24233;SDS011;12365;43.554;1.388;2023-12-20T07:33:41;1.40;;;0.93;;
24233;SDS011;12365;43.554;1.388;2023-12-20T07:36:06;0.85;;;0.85;;
24233;SDS011;12365;43.554;1.388;2023-12-20T07:38:32;0.80;;;0.80;;
24233;SDS011;12365;43.554;1.388;2023-12-20T07:40:58;1.80;;;0.90;;
24233;SDS011;12365;43.554;1.388;2023-12-20T07:43:23;0.95;;;0.82;;
24233;SDS011;12365;43.554;1.388;2023-12-20T07:45:48;0.70;;;0.70;;
24233;SDS011;12365;43.554;1.388;2023-12-20T07:48:14;0.80;;;0.68;;
24233;SDS011;12365;43.554;1.388;2023-12-20T07:50:39;0.70;;;0.70;;
24233;SDS011;12365;43.554;1.388;2023-12-20T07:53:04;1.65;;;0.75;;
24233;SDS011;12365;43.554;1.388;2023-12-20T07:55:30;0.93;;;0.80;;
24233;SDS011;12365;43.554;1.388;2023-12-20T07:57:56;1.15;;;0.63;;
24233;SDS011;12365;43.554;1.388;2023-12-20T08:00:21;0.60;;;0.60;;
24233;SDS011;12365;43.554;1.388;2023-12-20T08:02:46;0.80;;;0.80;;
24233;SDS011;12365;43.554;1.388;2023-12-20T08:05:12;0.93;;;0.70;;
24233;SDS011;12365;43.554;1.388;2023-12-20T08:07:38;0.63;;;0.63;;
24233;SDS011;12365;43.554;1.388;2023-12-20T08:10:04;0.70;;;0.70;;
24233;SDS011;12365;43.554;1.388;2023-12-20T08:12:30;1.38;;;0.60;;
24233;SDS011;12365;43.554;1.388;2023-12-20T08:14:55;0.88;;;0.80;;
24233;SDS011;12365;43.554;1.388;2023-12-20T08:17:22;0.90;;;0.70;;
24233;SDS011;12365;43.554;1.388;2023-12-20T08:19:48;0.77;;;0.60;;
24233;SDS011;12365;43.554;1.388;2023-12-20T08:22:14;0.60;;;0.60;;
24233;SDS011;12365;43.554;1.388;2023-12-20T08:24:39;1.10;;;0.70;;
24233;SDS011;12365;43.554;1.388;2023-12-20T08:27:04;0.93;;;0.80;;
24233;SDS011;12365;43.554;1.388;2023-12-20T08:29:30;3.20;;;0.80;;
24233;SDS011;12365;43.554;1.388;2023-12-20T08:31:55;1.88;;;0.80;;
24233;SDS011;12365;43.554;1.388;2023-12-20T08:34:21;1.20;;;0.70;;
24233;SDS011;12365;43.554;1.388;2023-12-20T08:36:47;1.67;;;0.70;;
24233;SDS011;12365;43.554;1.388;2023-12-20T08:39:12;1.13;;;0.80;;
24233;SDS011;12365;43.554;1.388;2023-12-20T08:41:38;0.80;;;0.77;;
24233;SDS011;12365;43.554;1.388;2023-12-20T08:44:03;1.10;;;1.00;;
24233;SDS011;12365;43.554;1.388;2023-12-20T08:46:29;1.65;;;1.05;;
24233;SDS011;12365;43.554;1.388;2023-12-20T08:48:54;1.20;;;0.90;;
24233;SDS011;12365;43.554;1.388;2023-12-20T08:51:20;1.08;;;1.00;;
24233;SDS011;12365;43.554;1.388;2023-12-20T08:53:47;1.70;;;1.00;;
24233;SDS011;12365;43.554;1.388;2023-12-20T08:56:14;1.10;;;1.00;;
24233;SDS011;12365;43.554;1.388;2023-12-20T08:58:40;2.22;;;1.10;;
24233;SDS011;12365;43.554;1.388;2023-12-20T09:01:05;1.88;;;1.05;;
24233;SDS011;12365;43.554;1.388;2023-12-20T09:03:30;3.15;;;1.15;;
24233;SDS011;12365;43.554;1.388;2023-12-20T09:05:56;2.40;;;1.17;;
24233;SDS011;12365;43.554;1.388;2023-12-20T09:08:21;1.55;;;1.10;;
24233;SDS011;12365;43.554;1.388;2023-12-20T09:10:47;1.77;;;1.15;;
24233;SDS011;12365;43.554;1.388;2023-12-20T09:13:12;3.72;;;1.00;;
24233;SDS011;12365;43.554;1.388;2023-12-20T09:15:37;1.20;;;1.10;;
24233;SDS011;12365;43.554;1.388;2023-12-20T09:18:03;1.73;;;1.20;;
24233;SDS011;12365;43.554;1.388;2023-12-20T09:20:28;1.42;;;1.02;;
24233;SDS011;12365;43.554;1.388;2023-12-20T09:22:54;4.55;;;1.20;;
24233;SDS011;12365;43.554;1.388;2023-12-20T09:25:19;1.35;;;1.00;;
24233;SDS011;12365;43.554;1.388;2023-12-20T09:27:44;2.35;;;1.10;;
24233;SDS011;12365;43.554;1.388;2023-12-20T09:30:10;1.10;;;1.00;;
24233;SDS011;12365;43.554;1.388;2023-12-20T09:32:35;1.88;;;0.90;;
24233;SDS011;12365;43.554;1.388;2023-12-20T09:35:01;1.42;;;0.93;;
24233;SDS011;12365;43.554;1.388;2023-12-20T09:37:27;0.73;;;0.73;;
24233;SDS011;12365;43.554;1.388;2023-12-20T09:39:53;2.25;;;1.00;;
24233;SDS011;12365;43.554;1.388;2023-12-20T09:42:29;1.20;;;0.70;;
24233;SDS011;12365;43.554;1.388;2023-12-20T09:45:08;1.65;;;0.85;;
24233;SDS011;12365;43.554;1.388;2023-12-20T09:47:35;1.23;;;0.80;;
24233;SDS011;12365;43.554;1.388;2023-12-20T09:50:00;1.98;;;1.00;;
24233;SDS011;12365;43.554;1.388;2023-12-20T09:52:27;2.08;;;0.90;;
24233;SDS011;12365;43.554;1.388;2023-12-20T09:54:54;2.83;;;0.80;;
24233;SDS011;12365;43.554;1.388;2023-12-20T09:57:22;2.72;;;1.00;;
24233;SDS011;12365;43.554;1.388;2023-12-20T09:59:47;1.27;;;0.80;;
24233;SDS011;12365;43.554;1.388;2023-12-20T10:02:13;4.68;;;0.80;;
24233;SDS011;12365;43.554;1.388;2023-12-20T10:04:46;0.75;;;0.65;;
24233;SDS011;12365;43.554;1.388;2023-12-20T10:07:15;2.17;;;0.90;;
24233;SDS011;12365;43.554;1.388;2023-12-20T10:09:41;2.03;;;0.70;;
24233;SDS011;12365;43.554;1.388;2023-12-20T10:12:07;2.95;;;0.90;;
24233;SDS011;12365;43.554;1.388;2023-12-20T10:14:32;2.10;;;0.82;;
24233;SDS011;12365;43.554;1.388;2023-12-20T10:17:04;2.25;;;0.80;;
24233;SDS011;12365;43.554;1.388;2023-12-20T10:19:31;3.03;;;1.10;;
24233;SDS011;12365;43.554;1.388;2023-12-20T10:22:00;3.47;;;1.10;;
24233;SDS011;12365;43.554;1.388;2023-12-20T10:24:28;2.45;;;0.88;;
24233;SDS011;12365;43.554;1.388;2023-12-20T10:27:01;3.17;;;0.90;;
24233;SDS011;12365;43.554;1.388;2023-12-20T10:29:33;2.67;;;1.00;;
24233;SDS011;12365;43.554;1.388;2023-12-20T10:32:05;2.33;;;0.95;;
24233;SDS011;12365;43.554;1.388;2023-12-20T10:34:52;1.20;;;0.85;;
24233;SDS011;12365;43.554;1.388;2023-12-20T10:37:19;1.55;;;0.80;;
24233;SDS011;12365;43.554;1.388;2023-12-20T10:39:47;2.47;;;0.90;;
24233;SDS011;12365;43.554;1.388;2023-12-20T10:44:41;1.70;;;0.73;;
24233;SDS011;12365;43.554;1.388;2023-12-20T10:47:07;4.00;;;0.90;;
24233;SDS011;12365;43.554;1.388;2023-12-20T10:49:36;2.45;;;0.98;;
24233;SDS011;12365;43.554;1.388;2023-12-20T10:52:02;3.67;;;1.08;;
24233;SDS011;12365;43.554;1.388;2023-12-20T10:54:30;1.10;;;0.80;;
24233;SDS011;12365;43.554;1.388;2023-12-20T10:56:55;2.70;;;0.90;;
24233;SDS011;12365;43.554;1.388;2023-12-20T10:59:23;1.40;;;0.73;;
24233;SDS011;12365;43.554;1.388;2023-12-20T11:01:50;3.28;;;0.82;;
24233;SDS011;12365;43.554;1.388;2023-12-20T11:04:22;2.92;;;0.93;;
24233;SDS011;12365;43.554;1.388;2023-12-20T11:06:52;2.22;;;0.80;;
24233;SDS011;12365;43.554;1.388;2023-12-20T11:09:25;2.13;;;0.90;;
24233;SDS011;12365;43.554;1.388;2023-12-20T11:14:51;2.38;;;0.98;;
24233;SDS011;12365;43.554;1.388;2023-12-20T11:17:20;2.72;;;0.90;;
24233;SDS011;12365;43.554;1.388;2023-12-20T11:24:44;4.72;;;1.00;;
24233;SDS011;12365;43.554;1.388;2023-12-20T11:27:11;3.92;;;1.00;;
24233;SDS011;12365;43.554;1.388;2023-12-20T11:29:38;3.58;;;1.00;;
24233;SDS011;12365;43.554;1.388;2023-12-20T11:32:50;1.80;;;0.70;;
24233;SDS011;12365;43.554;1.388;2023-12-20T11:35:38;2.25;;;0.88;;
24233;SDS011;12365;43.554;1.388;2023-12-20T11:37:39;1.75;;;0.70;;
24233;SDS011;12365;43.554;1.388;2023-12-20T11:40:12;2.67;;;0.93;;
24233;SDS011;12365;43.554;1.388;2023-12-20T11:42:40;2.30;;;0.70;;
24233;SDS011;12365;43.554;1.388;2023-12-20T11:45:15;2.60;;;0.90;;
24233;SDS011;12365;43.554;1.388;2023-12-20T11:47:46;4.65;;;1.17;;
24233;SDS011;12365;43.554;1.388;2023-12-20T11:50:15;2.85;;;0.93;;
24233;SDS011;12365;43.554;1.388;2023-12-20T11:52:41;2.45;;;0.85;;
24233;SDS011;12365;43.554;1.388;2023-12-20T11:55:06;2.45;;;0.95;;
24233;SDS011;12365;43.554;1.388;2023-12-20T11:57:32;4.90;;;1.38;;
24233;SDS011;12365;43.554;1.388;2023-12-20T11:59:58;2.50;;;0.90;;
24233;SDS011;12365;43.554;1.388;2023-12-20T12:02:24;3.20;;;1.10;;
24233;SDS011;12365;43.554;1.388;2023-12-20T12:04:49;3.92;;;0.82;;
24233;SDS011;12365;43.554;1.388;2023-12-20T12:07:18;4.88;;;1.23;;
24233;SDS011;12365;43.554;1.388;2023-12-20T12:09:43;4.85;;;0.80;;
24233;SDS011;12365;43.554;1.388;2023-12-20T12:12:09;3.63;;;1.00;;
24233;SDS011;12365;43.554;1.388;2023-12-20T12:14:36;3.15;;;1.00;;
24233;SDS011;12365;43.554;1.388;2023-12-20T12:17:03;2.95;;;0.88;;
24233;SDS011;12365;43.554;1.388;2023-12-20T12:19:29;2.78;;;0.80;;
24233;SDS011;12365;43.554;1.388;2023-12-20T12:24:34;3.22;;;1.00;;
24233;SDS011;12365;43.554;1.388;2023-12-20T12:26:59;1.80;;;0.70;;
24233;SDS011;12365;43.554;1.388;2023-12-20T12:29:25;4.65;;;0.70;;
24233;SDS011;12365;43.554;1.388;2023-12-20T12:31:50;4.45;;;0.90;;
24233;SDS011;12365;43.554;1.388;2023-12-20T12:34:17;1.98;;;0.80;;
24233;SDS011;12365;43.554;1.388;2023-12-20T12:36:42;3.28;;;0.77;;
24233;SDS011;12365;43.554;1.388;2023-12-20T12:39:08;2.92;;;1.00;;
24233;SDS011;12365;43.554;1.388;2023-12-20T12:41:34;3.40;;;0.82;;
24233;SDS011;12365;43.554;1.388;2023-12-20T12:44:00;5.80;;;0.90;;
24233;SDS011;12365;43.554;1.388;2023-12-20T12:46:25;2.75;;;0.77;;
24233;SDS011;12365;43.554;1.388;2023-12-20T12:48:50;3.08;;;0.98;;
24233;SDS011;12365;43.554;1.388;2023-12-20T12:51:16;3.53;;;0.70;;
24233;SDS011;12365;43.554;1.388;2023-12-20T12:53:41;3.15;;;0.70;;
24233;SDS011;12365;43.554;1.388;2023-12-20T12:56:07;6.00;;;1.23;;
24233;SDS011;12365;43.554;1.388;2023-12-20T12:58:33;2.85;;;0.70;;
24233;SDS011;12365;43.554;1.388;2023-12-20T13:00:58;6.70;;;0.90;;
24233;SDS011;12365;43.554;1.388;2023-12-20T13:03:24;1.48;;;0.70;;
24233;SDS011;12365;43.554;1.388;2023-12-20T13:05:49;2.63;;;0.60;;
24233;SDS011;12365;43.554;1.388;2023-12-20T13:08:15;5.47;;;0.90;;
24233;SDS011;12365;43.554;1.388;2023-12-20T13:10:40;4.55;;;1.08;;
24233;SDS011;12365;43.554;1.388;2023-12-20T13:13:06;3.80;;;1.00;;
24233;SDS011;12365;43.554;1.388;2023-12-20T13:15:31;4.65;;;0.88;;
24233;SDS011;12365;43.554;1.388;2023-12-20T13:17:56;5.95;;;1.00;;
24233;SDS011;12365;43.554;1.388;2023-12-20T13:20:22;3.30;;;0.93;;
24233;SDS011;12365;43.554;1.388;2023-12-20T13:22:47;4.63;;;0.98;;
24233;SDS011;12365;43.554;1.388;2023-12-20T13:25:13;4.32;;;1.10;;
24233;SDS011;12365;43.554;1.388;2023-12-20T13:27:38;3.33;;;0.90;;
24233;SDS011;12365;43.554;1.388;2023-12-20T13:30:04;2.28;;;0.85;;
24233;SDS011;12365;43.554;1.388;2023-12-20T13:32:30;4.65;;;0.90;;
24233;SDS011;12365;43.554;1.388;2023-12-20T13:34:56;3.65;;;0.93;;
24233;SDS011;12365;43.554;1.388;2023-12-20T13:37:21;3.65;;;1.02;;
24233;SDS011;12365;43.554;1.388;2023-12-20T13:39:47;4.82;;;0.80;;
24233;SDS011;12365;43.554;1.388;2023-12-20T13:42:13;4.82;;;1.02;;
24233;SDS011;12365;43.554;1.388;2023-12-20T13:44:39;6.47;;;1.13;;
24233;SDS011;12365;43.554;1.388;2023-12-20T13:47:05;4.95;;;1.23;;
24233;SDS011;12365;43.554;1.388;2023-12-20T13:49:31;2.08;;;0.80;;
24233;SDS011;12365;43.554;1.388;2023-12-20T13:51:56;8.57;;;0.85;;
24233;SDS011;12365;43.554;1.388;2023-12-20T13:54:22;1.95;;;0.90;;
24233;SDS011;12365;43.554;1.388;2023-12-20T13:56:48;5.50;;;1.33;;
24233;SDS011;12365;43.554;1.388;2023-12-20T13:59:13;5.47;;;1.10;;
24233;SDS011;12365;43.554;1.388;2023-12-20T14:01:40;6.63;;;0.90;;
24233;SDS011;12365;43.554;1.388;2023-12-20T14:04:05;5.35;;;0.88;;
24233;SDS011;12365;43.554;1.388;2023-12-20T14:06:32;6.38;;;0.95;;
24233;SDS011;12365;43.554;1.388;2023-12-20T14:08:57;3.55;;;0.98;;
24233;SDS011;12365;43.554;1.388;2023-12-20T14:11:25;2.85;;;0.90;;
24233;SDS011;12365;43.554;1.388;2023-12-20T14:13:51;4.50;;;1.20;;
24233;SDS011;12365;43.554;1.388;2023-12-20T14:16:16;7.43;;;1.10;;
24233;SDS011;12365;43.554;1.388;2023-12-20T14:18:41;3.72;;;1.00;;
24233;SDS011;12365;43.554;1.388;2023-12-20T14:21:07;4.53;;;1.23;;
24233;SDS011;12365;43.554;1.388;2023-12-20T14:23:32;7.25;;;1.10;;
24233;SDS011;12365;43.554;1.388;2023-12-20T14:25:58;2.10;;;0.93;;
24233;SDS011;12365;43.554;1.388;2023-12-20T14:28:24;5.38;;;1.23;;
24233;SDS011;12365;43.554;1.388;2023-12-20T14:30:50;5.15;;;1.02;;
24233;SDS011;12365;43.554;1.388;2023-12-20T14:33:15;4.80;;;1.00;;
24233;SDS011;12365;43.554;1.388;2023-12-20T14:35:41;4.35;;;1.10;;
24233;SDS011;12365;43.554;1.388;2023-12-20T14:38:07;4.07;;;0.93;;
24233;SDS011;12365;43.554;1.388;2023-12-20T14:40:33;4.45;;;1.27;;
24233;SDS011;12365;43.554;1.388;2023-12-20T14:42:58;4.10;;;1.20;;
24233;SDS011;12365;43.554;1.388;2023-12-20T14:45:25;3.13;;;0.80;;
24233;SDS011;12365;43.554;1.388;2023-12-20T14:47:50;2.10;;;0.80;;
24233;SDS011;12365;43.554;1.388;2023-12-20T14:50:16;4.82;;;1.42;;